Time;durP1;ratioP1;P1;durP2;ratioP2;P2;SDS_P1;SDS_P2;PMS_P1;PMS_P2;Temp;Humidity;BMP_temperature;BMP_pressure;BME280_temperature;BME280_humidity;BME280_pressure;Samples;Min_cycle;Max_cycle;Signal;HPM_P1;HPM_P2
2023/04/20 00:00:10;;;;;;;8.93;7.85;;;5.80;99.90;;;;;;2089870;28;20029;-73
2023/04/20 00:01:13;;;;;;;8.88;7.20;;;5.80;99.90;;;;;;2090325;28;20407;-73
2023/04/20 00:02:14;;;;;;;8.52;7.35;;;5.80;99.90;;;;;;2090329;28;20016;-73
2023/04/20 00:03:17;;;;;;;9.35;7.10;;;5.80;99.90;;;;;;2091799;28;20092;-73
2023/04/20 00:04:17;;;;;;;8.63;7.35;;;5.80;99.90;;;;;;2080950;28;20045;-74
2023/04/20 00:05:18;;;;;;;9.02;7.47;;;5.80;99.90;;;;;;2073399;28;20092;-74
2023/04/20 00:06:20;;;;;;;9.02;7.90;;;5.80;99.90;;;;;;2081316;28;20028;-73
2023/04/20 00:07:23;;;;;;;8.68;7.65;;;5.80;99.90;;;;;;2091939;28;20120;-73
2023/04/20 00:08:24;;;;;;;9.15;7.85;;;5.80;99.90;;;;;;2089982;28;20286;-74
2023/04/20 00:09:26;;;;;;;8.65;7.25;;;5.80;99.90;;;;;;2087791;28;20067;-73
2023/04/20 00:10:27;;;;;;;8.35;7.45;;;5.80;99.90;;;;;;2090014;28;20119;-74
2023/04/20 00:11:27;;;;;;;8.70;7.43;;;5.80;99.90;;;;;;2090034;28;20439;-74
2023/04/20 00:12:29;;;;;;;8.75;7.32;;;5.80;99.90;;;;;;2092330;28;20028;-74
2023/04/20 00:13:29;;;;;;;8.68;7.78;;;5.80;99.90;;;;;;2087679;28;20025;-73
2023/04/20 00:14:30;;;;;;;9.38;7.75;;;5.80;99.90;;;;;;2092339;28;20056;-74
2023/04/20 00:15:31;;;;;;;8.27;7.45;;;5.80;99.90;;;;;;2092695;28;20256;-73
2023/04/20 00:16:32;;;;;;;9.20;7.68;;;5.90;99.90;;;;;;2093631;28;20088;-73
2023/04/20 00:17:32;;;;;;;9.48;8.00;;;5.90;99.90;;;;;;2091833;28;20047;-74
2023/04/20 00:18:33;;;;;;;9.02;7.68;;;5.90;99.90;;;;;;2091566;28;20059;-74
2023/04/20 00:19:33;;;;;;;9.82;8.13;;;5.90;99.90;;;;;;2091520;28;20032;-73
2023/04/20 00:20:34;;;;;;;9.38;7.65;;;5.80;99.90;;;;;;2084975;28;20692;-73
2023/04/20 00:21:35;;;;;;;10.00;8.30;;;5.90;99.90;;;;;;2082893;28;20025;-74
2023/04/20 00:22:36;;;;;;;10.07;8.13;;;5.90;99.90;;;;;;2088989;28;20029;-74
2023/04/20 00:23:36;;;;;;;11.48;8.75;;;5.90;99.90;;;;;;2086193;28;20017;-74
2023/04/20 00:24:37;;;;;;;10.93;8.93;;;5.80;99.90;;;;;;2091665;28;20216;-73
2023/04/20 00:25:37;;;;;;;11.23;8.88;;;5.80;99.90;;;;;;2084630;28;20033;-74
2023/04/20 00:26:38;;;;;;;12.98;10.00;;;5.80;99.90;;;;;;2082319;28;20056;-74
2023/04/20 00:27:39;;;;;;;12.45;9.38;;;5.80;99.90;;;;;;2082906;28;20388;-74
2023/04/20 00:28:40;;;;;;;12.68;9.77;;;5.80;99.90;;;;;;2091450;28;20044;-74
2023/04/20 00:29:41;;;;;;;12.10;9.57;;;5.80;99.90;;;;;;2091703;28;20056;-73
2023/04/20 00:30:41;;;;;;;12.02;8.98;;;5.80;99.90;;;;;;2076466;28;20120;-74
2023/04/20 00:31:43;;;;;;;10.82;8.32;;;5.80;99.90;;;;;;2074889;28;20110;-74
2023/04/20 00:32:44;;;;;;;10.77;8.52;;;5.70;99.90;;;;;;2083271;28;20676;-74
2023/04/20 00:33:44;;;;;;;10.02;8.32;;;5.70;99.90;;;;;;2074098;28;20143;-74
2023/04/20 00:34:45;;;;;;;9.95;8.55;;;5.70;99.90;;;;;;2079956;28;20048;-74
2023/04/20 00:35:46;;;;;;;9.55;8.32;;;5.70;99.90;;;;;;2095100;28;20068;-74
2023/04/20 00:36:46;;;;;;;10.30;8.30;;;5.70;99.90;;;;;;2095308;28;20043;-72
2023/04/20 00:37:47;;;;;;;10.15;8.23;;;5.70;99.90;;;;;;2082669;28;20556;-74
2023/04/20 00:38:47;;;;;;;10.10;8.55;;;5.70;99.90;;;;;;2091314;28;20013;-74
2023/04/20 00:39:48;;;;;;;9.52;8.48;;;5.70;99.90;;;;;;2093724;28;20033;-74
2023/04/20 00:40:52;;;;;;;10.00;8.45;;;5.70;99.90;;;;;;2089950;28;20028;-75
2023/04/20 00:41:52;;;;;;;10.95;9.27;;;5.70;99.90;;;;;;2076666;28;20025;-74
2023/04/20 00:42:53;;;;;;;11.35;9.10;;;5.70;99.90;;;;;;2074421;28;20124;-73
2023/04/20 00:43:53;;;;;;;11.38;8.80;;;5.70;99.90;;;;;;2084726;28;20033;-73
2023/04/20 00:44:54;;;;;;;11.32;8.95;;;5.70;99.90;;;;;;2086552;28;20511;-74
2023/04/20 00:45:56;;;;;;;10.25;8.50;;;5.70;99.90;;;;;;2074370;28;20284;-74
2023/04/20 00:46:56;;;;;;;10.38;9.00;;;5.70;99.90;;;;;;2081187;28;20278;-74
2023/04/20 00:47:57;;;;;;;10.73;9.00;;;5.70;99.90;;;;;;2091374;28;20497;-74
2023/04/20 00:48:58;;;;;;;12.10;9.57;;;5.70;99.90;;;;;;2091376;28;20028;-74
2023/04/20 00:50:00;;;;;;;14.70;9.98;;;5.70;99.90;;;;;;2088858;28;20127;-73
2023/04/20 00:51:01;;;;;;;16.23;10.85;;;5.70;99.90;;;;;;2084617;28;20017;-74
2023/04/20 00:52:02;;;;;;;15.43;10.75;;;5.70;99.90;;;;;;2082468;28;20017;-74
2023/04/20 00:53:05;;;;;;;15.40;10.13;;;5.70;99.90;;;;;;2082596;28;20447;-73
2023/04/20 00:54:06;;;;;;;13.13;9.98;;;5.70;99.90;;;;;;2074553;28;20556;-73
2023/04/20 00:55:07;;;;;;;12.27;9.82;;;5.60;99.90;;;;;;2079646;28;20033;-73
2023/04/20 00:56:08;;;;;;;14.65;10.75;;;5.70;99.90;;;;;;2084282;28;20256;-74
2023/04/20 00:57:12;;;;;;;14.38;11.20;;;5.70;99.90;;;;;;2082423;28;20785;-74
2023/04/20 00:58:12;;;;;;;11.57;9.70;;;5.60;99.90;;;;;;2090967;28;20035;-73
2023/04/20 00:59:13;;;;;;;11.98;10.43;;;5.70;99.90;;;;;;2082476;28;20423;-73
2023/04/20 01:00:14;;;;;;;11.70;10.05;;;5.70;99.90;;;;;;2076208;28;20577;-73
2023/04/20 01:01:16;;;;;;;11.52;9.98;;;5.70;99.90;;;;;;2087531;28;20029;-73
2023/04/20 01:02:19;;;;;;;12.27;9.70;;;5.70;99.90;;;;;;2091476;28;20049;-73
2023/04/20 01:03:21;;;;;;;11.85;10.05;;;5.70;99.90;;;;;;2091973;28;20487;-73
2023/04/20 01:04:22;;;;;;;11.70;9.85;;;5.70;99.90;;;;;;2095523;28;20088;-73
2023/04/20 01:05:25;;;;;;;11.30;9.60;;;5.70;99.90;;;;;;2084311;28;20021;-73
2023/04/20 01:06:26;;;;;;;12.15;9.82;;;5.70;99.90;;;;;;2074502;28;21141;-73
2023/04/20 01:07:28;;;;;;;11.90;9.70;;;5.70;99.90;;;;;;2082098;28;20367;-73
2023/04/20 01:08:30;;;;;;;11.50;9.98;;;5.70;99.90;;;;;;2077500;28;20304;-73
2023/04/20 01:09:30;;;;;;;12.05;10.05;;;5.70;99.90;;;;;;2071114;28;20053;-74
2023/04/20 01:10:31;;;;;;;11.52;10.07;;;5.70;99.90;;;;;;2081559;28;20179;-74
2023/04/20 01:11:31;;;;;;;11.52;9.55;;;5.70;99.90;;;;;;2083202;28;20025;-74
2023/04/20 01:12:32;;;;;;;11.10;9.68;;;5.70;99.90;;;;;;2092327;28;20686;-72
2023/04/20 01:13:32;;;;;;;12.43;10.63;;;5.80;99.90;;;;;;2090848;28;20032;-73
2023/04/20 01:14:33;;;;;;;12.75;10.80;;;5.80;99.90;;;;;;2083400;28;20064;-73
2023/04/20 01:15:34;;;;;;;11.98;10.25;;;5.70;99.90;;;;;;2068332;28;20025;-73
2023/04/20 01:16:35;;;;;;;13.13;11.07;;;5.80;99.90;;;;;;2075376;28;20025;-73
2023/04/20 01:17:39;;;;;;;12.63;11.07;;;5.80;99.90;;;;;;2090763;28;20025;-73
2023/04/20 01:18:47;;;;;;;13.35;10.85;;;5.80;99.90;;;;;;2092635;28;20032;-74
2023/04/20 01:19:48;;;;;;;12.23;10.30;;;5.70;99.90;;;;;;2092823;28;20064;-73
2023/04/20 01:20:48;;;;;;;11.68;10.25;;;5.70;99.90;;;;;;2090982;28;20459;-73
2023/04/20 01:21:49;;;;;;;11.40;10.00;;;5.70;99.90;;;;;;2080189;28;20048;-73
2023/04/20 01:22:52;;;;;;;12.70;10.40;;;5.70;99.90;;;;;;2070704;28;20068;-74
2023/04/20 01:23:53;;;;;;;12.48;10.70;;;5.70;99.90;;;;;;2075936;28;20029;-75
2023/04/20 01:24:53;;;;;;;13.13;11.38;;;5.60;99.90;;;;;;2073683;28;20567;-74
2023/04/20 01:25:54;;;;;;;11.95;10.65;;;5.60;99.90;;;;;;2081399;28;20116;-73
2023/04/20 01:26:56;;;;;;;13.35;10.88;;;5.60;99.90;;;;;;2081376;28;20029;-73
2023/04/20 01:27:57;;;;;;;13.45;11.60;;;5.60;99.90;;;;;;2084322;28;20389;-73
2023/04/20 01:28:57;;;;;;;12.98;10.98;;;5.50;99.90;;;;;;2082685;28;20033;-73
2023/04/20 01:29:58;;;;;;;12.63;10.73;;;5.50;99.90;;;;;;2082657;28;20130;-73
2023/04/20 01:30:58;;;;;;;13.77;10.95;;;5.50;99.90;;;;;;2090730;28;20056;-73
2023/04/20 01:31:59;;;;;;;12.52;11.02;;;5.50;99.90;;;;;;2090751;28;20519;-73
2023/04/20 01:33:00;;;;;;;12.88;10.70;;;5.40;99.90;;;;;;2083854;28;20105;-73
2023/04/20 01:34:00;;;;;;;11.90;10.35;;;5.40;99.90;;;;;;2081869;28;20032;-73
2023/04/20 01:35:02;;;;;;;12.82;11.32;;;5.40;99.90;;;;;;2090730;28;20276;-74
2023/04/20 01:36:05;;;;;;;14.23;11.48;;;5.40;99.90;;;;;;2091036;28;20037;-73
2023/04/20 01:37:07;;;;;;;13.85;10.90;;;5.30;99.90;;;;;;2079711;28;20112;-73
2023/04/20 01:38:08;;;;;;;14.10;11.23;;;5.30;99.90;;;;;;2083725;28;20056;-74
2023/04/20 01:39:08;;;;;;;12.57;10.57;;;5.20;99.90;;;;;;2073760;28;20032;-73
2023/04/20 01:40:10;;;;;;;11.63;10.13;;;5.20;99.90;;;;;;2081122;28;20527;-73
2023/04/20 01:41:11;;;;;;;13.70;11.07;;;5.10;99.90;;;;;;2095336;28;20123;-74
2023/04/20 01:42:12;;;;;;;12.50;10.35;;;5.00;99.90;;;;;;2081551;28;20100;-74
2023/04/20 01:43:12;;;;;;;13.65;10.93;;;5.00;99.90;;;;;;2075429;28;20048;-74
2023/04/20 01:44:13;;;;;;;17.23;12.52;;;4.90;99.90;;;;;;2081572;28;20036;-75
2023/04/20 01:45:14;;;;;;;16.08;12.13;;;4.90;99.90;;;;;;2081293;28;20033;-74
2023/04/20 01:46:14;;;;;;;16.63;12.05;;;4.90;99.90;;;;;;2065415;28;20171;-73
2023/04/20 01:47:15;;;;;;;16.98;12.48;;;4.80;99.90;;;;;;2075729;28;20205;-73
2023/04/20 01:48:15;;;;;;;18.65;13.05;;;4.80;99.90;;;;;;2081392;28;20056;-74
2023/04/20 01:49:16;;;;;;;17.75;12.40;;;4.70;99.90;;;;;;2073443;28;20084;-73
2023/04/20 01:50:17;;;;;;;16.30;12.48;;;4.70;99.90;;;;;;2081678;28;20021;-73
2023/04/20 01:51:17;;;;;;;17.40;12.57;;;4.70;99.90;;;;;;2081087;28;20029;-73
2023/04/20 01:52:18;;;;;;;15.23;12.50;;;4.70;99.90;;;;;;2082853;28;20083;-73
2023/04/20 01:53:18;;;;;;;15.52;12.02;;;4.60;99.90;;;;;;2090568;28;20054;-73
2023/04/20 01:54:20;;;;;;;15.57;11.48;;;4.60;99.90;;;;;;2081326;28;20486;-74
2023/04/20 01:55:21;;;;;;;16.38;12.48;;;4.60;99.90;;;;;;2075183;28;20025;-74
2023/04/20 01:56:21;;;;;;;14.50;11.90;;;4.60;99.90;;;;;;2081127;28;20021;-74
2023/04/20 01:57:23;;;;;;;14.50;11.80;;;4.60;99.90;;;;;;2089092;28;20024;-74
2023/04/20 01:58:25;;;;;;;15.27;11.65;;;4.60;99.90;;;;;;2074847;28;20099;-74
2023/04/20 01:59:25;;;;;;;14.35;11.35;;;4.50;99.90;;;;;;2079213;28;20063;-74
2023/04/20 02:00:27;;;;;;;13.63;11.07;;;4.50;99.90;;;;;;2079391;28;20021;-74
2023/04/20 02:01:27;;;;;;;12.85;10.90;;;4.50;99.90;;;;;;2073716;28;20026;-73
2023/04/20 02:02:28;;;;;;;13.63;10.95;;;4.50;99.90;;;;;;2083793;28;20399;-74
2023/04/20 02:03:31;;;;;;;14.27;11.23;;;4.50;99.90;;;;;;2081372;28;20032;-74
2023/04/20 02:04:32;;;;;;;15.60;11.88;;;4.40;99.90;;;;;;2081576;28;20059;-73
2023/04/20 02:05:32;;;;;;;15.55;11.50;;;4.40;99.90;;;;;;2090606;28;20430;-72
2023/04/20 02:06:33;;;;;;;15.63;12.13;;;4.40;99.90;;;;;;2083439;28;20211;-73
2023/04/20 02:07:34;;;;;;;14.30;11.38;;;4.40;99.90;;;;;;2081397;28;20037;-73
2023/04/20 02:08:34;;;;;;;13.70;11.40;;;4.30;99.90;;;;;;2045622;28;1031603;-73
2023/04/20 02:09:35;;;;;;;13.57;11.20;;;4.30;99.90;;;;;;2090801;28;20032;-73
2023/04/20 02:10:36;;;;;;;14.70;11.80;;;4.30;99.90;;;;;;2094481;28;20024;-73
2023/04/20 02:11:36;;;;;;;13.73;11.38;;;4.30;99.90;;;;;;2081902;28;20047;-73
2023/04/20 02:12:39;;;;;;;15.05;11.57;;;4.30;99.90;;;;;;2088260;28;20040;-73
2023/04/20 02:13:40;;;;;;;14.57;11.77;;;4.20;99.90;;;;;;2090718;28;20324;-73
2023/04/20 02:14:41;;;;;;;13.95;11.00;;;4.20;99.90;;;;;;2083710;28;20503;-74
2023/04/20 02:15:44;;;;;;;13.52;10.90;;;4.20;99.90;;;;;;2073869;28;20144;-74
2023/04/20 02:16:46;;;;;;;14.27;11.23;;;4.10;99.90;;;;;;2085470;28;20108;-68
2023/04/20 02:17:50;;;;;;;13.80;10.93;;;4.10;99.90;;;;;;2082600;28;20024;-68
2023/04/20 02:18:51;;;;;;;14.30;11.52;;;4.10;99.90;;;;;;2075050;28;20125;-69
2023/04/20 02:19:51;;;;;;;13.10;11.13;;;4.10;99.90;;;;;;2068376;28;20053;-68
2023/04/20 02:20:52;;;;;;;14.07;11.48;;;4.10;99.90;;;;;;2083547;28;20064;-69
2023/04/20 02:21:53;;;;;;;16.08;11.90;;;4.10;99.90;;;;;;2090915;28;20416;-68
2023/04/20 02:22:53;;;;;;;14.60;12.00;;;4.00;99.90;;;;;;2090976;28;20047;-69
2023/04/20 02:23:54;;;;;;;14.88;12.23;;;4.00;99.90;;;;;;2090764;28;20500;-69
2023/04/20 02:24:55;;;;;;;13.63;11.40;;;4.00;99.90;;;;;;2093039;28;20511;-69
2023/04/20 02:25:56;;;;;;;13.57;11.38;;;4.00;99.90;;;;;;2090871;28;20036;-69
2023/04/20 02:26:57;;;;;;;15.82;12.27;;;4.00;99.90;;;;;;2091831;28;20039;-69
2023/04/20 02:27:58;;;;;;;14.57;12.20;;;4.00;99.90;;;;;;2094051;28;20035;-69
2023/04/20 02:28:58;;;;;;;14.10;11.57;;;3.90;99.90;;;;;;2092457;28;20029;-69
2023/04/20 02:30:00;;;;;;;14.70;11.90;;;3.90;99.90;;;;;;2082621;28;20036;-69
2023/04/20 02:31:00;;;;;;;14.77;11.88;;;3.90;99.90;;;;;;2073287;28;20484;-69
2023/04/20 02:32:01;;;;;;;14.65;11.88;;;3.90;99.90;;;;;;2073375;28;20189;-69
2023/04/20 02:33:01;;;;;;;14.43;11.45;;;3.90;99.90;;;;;;2075502;28;20125;-69
2023/04/20 02:34:04;;;;;;;14.63;11.88;;;3.90;99.90;;;;;;2081813;28;20420;-69
2023/04/20 02:35:05;;;;;;;14.02;11.55;;;3.90;99.90;;;;;;2090760;28;20151;-68
2023/04/20 02:36:06;;;;;;;14.40;11.93;;;3.80;99.90;;;;;;2090772;28;20037;-69
2023/04/20 02:37:07;;;;;;;15.02;11.70;;;3.80;99.90;;;;;;2092619;28;20036;-68
2023/04/20 02:38:08;;;;;;;14.40;11.57;;;3.70;99.90;;;;;;2081066;28;20044;-68
2023/04/20 02:39:12;;;;;;;14.73;12.27;;;3.70;99.90;;;;;;2081509;28;20064;-69
2023/04/20 02:40:13;;;;;;;14.98;12.38;;;3.70;99.90;;;;;;2073343;28;20037;-67
2023/04/20 02:41:14;;;;;;;14.98;11.90;;;3.70;99.90;;;;;;2065082;28;20041;-67
2023/04/20 02:42:15;;;;;;;14.40;11.90;;;3.70;99.90;;;;;;2065222;28;20415;-68
2023/04/20 02:43:16;;;;;;;14.75;12.13;;;3.70;99.90;;;;;;2075562;28;20528;-67
2023/04/20 02:44:17;;;;;;;14.32;11.82;;;3.70;99.90;;;;;;2073522;28;20021;-68
2023/04/20 02:45:18;;;;;;;14.93;11.55;;;3.60;99.90;;;;;;2081813;28;20066;-68
2023/04/20 02:46:20;;;;;;;15.23;12.63;;;3.60;99.90;;;;;;2081423;28;20090;-68
2023/04/20 02:47:22;;;;;;;15.40;13.02;;;3.60;99.90;;;;;;2086103;28;20044;-69
2023/04/20 02:48:24;;;;;;;15.82;13.35;;;3.60;99.90;;;;;;2073544;28;20113;-69
2023/04/20 02:49:25;;;;;;;15.65;13.07;;;3.60;99.90;;;;;;2065248;28;20726;-69
2023/04/20 02:50:26;;;;;;;14.80;12.10;;;3.60;99.90;;;;;;2071640;28;20025;-69
2023/04/20 02:51:37;;;;;;;15.07;12.52;;;3.60;99.90;;;;;;2081189;28;20026;-69
2023/04/20 02:52:37;;;;;;;14.13;12.18;;;3.50;99.90;;;;;;2081263;28;20025;-68
2023/04/20 02:53:39;;;;;;;14.35;11.55;;;3.50;99.90;;;;;;2073287;28;20092;-67
2023/04/20 02:54:53;;;;;;;14.90;11.70;;;3.50;99.90;;;;;;2074681;28;20365;-68
2023/04/20 02:55:53;;;;;;;16.02;12.23;;;3.40;99.90;;;;;;2088065;28;20035;-68
2023/04/20 02:57:02;;;;;;;16.02;11.75;;;3.40;99.90;;;;;;2087805;28;20094;-68
2023/04/20 02:58:03;;;;;;;14.25;11.52;;;3.40;99.90;;;;;;2073988;28;20025;-69
2023/04/20 02:59:24;;;;;;;15.13;11.77;;;3.40;99.90;;;;;;2084110;28;20356;-69
2023/04/20 03:00:24;;;;;;;15.27;11.98;;;3.40;99.90;;;;;;2092649;28;20578;-68
2023/04/20 03:01:36;;;;;;;14.45;12.00;;;3.40;99.90;;;;;;2079215;28;20028;-68
2023/04/20 03:02:53;;;;;;;14.73;11.75;;;3.30;99.90;;;;;;2081467;28;20201;-68
2023/04/20 03:03:53;;;;;;;16.42;12.57;;;3.40;99.90;;;;;;2083530;28;20039;-69
2023/04/20 03:04:54;;;;;;;14.40;11.80;;;3.40;99.90;;;;;;2075456;28;20099;-68
2023/04/20 03:05:55;;;;;;;14.45;11.48;;;3.30;99.90;;;;;;2070052;28;20543;-69
2023/04/20 03:06:57;;;;;;;14.93;12.25;;;3.30;99.90;;;;;;2086584;28;20041;-69
2023/04/20 03:08:04;;;;;;;14.32;11.68;;;3.30;99.90;;;;;;2083828;28;20078;-68
2023/04/20 03:09:05;;;;;;;17.23;12.85;;;3.30;99.90;;;;;;2069124;28;20439;-68
2023/04/20 03:10:24;;;;;;;15.15;12.07;;;3.30;99.90;;;;;;2084034;28;20045;-68
2023/04/20 03:11:32;;;;;;;15.38;11.85;;;3.30;99.90;;;;;;2081693;28;20037;-68
2023/04/20 03:12:33;;;;;;;16.35;12.25;;;3.20;99.90;;;;;;2073345;28;20017;-68
2023/04/20 03:13:58;;;;;;;15.60;12.25;;;3.20;99.90;;;;;;2084811;28;20039;-68
2023/04/20 03:14:59;;;;;;;15.50;12.30;;;3.20;99.90;;;;;;2080474;28;20029;-69
2023/04/20 03:16:12;;;;;;;16.50;12.88;;;3.20;99.90;;;;;;2065299;28;20400;-68
2023/04/20 03:17:19;;;;;;;15.10;11.77;;;3.20;99.90;;;;;;2067871;28;20032;-68
2023/04/20 03:18:19;;;;;;;14.65;11.75;;;3.20;99.90;;;;;;2081361;28;20199;-68
2023/04/20 03:19:20;;;;;;;14.93;12.20;;;3.20;99.90;;;;;;2082879;28;20132;-69
2023/04/20 03:20:21;;;;;;;16.42;13.15;;;3.20;99.90;;;;;;2073179;28;20022;-68
2023/04/20 03:21:21;;;;;;;15.63;12.20;;;3.10;99.90;;;;;;2073339;28;20555;-68
2023/04/20 03:22:22;;;;;;;15.48;12.35;;;3.10;99.90;;;;;;2073160;28;20431;-68
2023/04/20 03:23:27;;;;;;;16.33;13.18;;;3.10;99.90;;;;;;2067586;28;20033;-68
2023/04/20 03:24:27;;;;;;;17.77;13.38;;;3.10;99.90;;;;;;2074866;28;20052;-68
2023/04/20 03:25:29;;;;;;;16.02;13.00;;;3.10;99.90;;;;;;2073840;28;20540;-68
2023/04/20 03:26:32;;;;;;;16.65;13.52;;;3.10;99.90;;;;;;2077557;28;20332;-68
2023/04/20 03:27:49;;;;;;;17.95;14.07;;;3.10;99.90;;;;;;2073607;28;20095;-68
2023/04/20 03:28:50;;;;;;;18.15;14.50;;;3.10;99.90;;;;;;2081874;28;20840;-68
2023/04/20 03:29:54;;;;;;;18.60;14.63;;;3.10;99.90;;;;;;2081501;28;20037;-68
2023/04/20 03:30:56;;;;;;;19.50;15.13;;;3.10;99.90;;;;;;2065258;28;20168;-68
2023/04/20 03:31:56;;;;;;;18.55;14.73;;;3.10;99.90;;;;;;2065467;28;20038;-68
2023/04/20 03:32:57;;;;;;;17.98;14.40;;;3.10;99.90;;;;;;2076220;28;20036;-68
2023/04/20 03:33:58;;;;;;;20.52;14.98;;;3.20;99.90;;;;;;2081119;28;20033;-68
2023/04/20 03:34:58;;;;;;;19.17;14.23;;;3.20;99.90;;;;;;2073057;28;20496;-68
2023/04/20 03:35:59;;;;;;;18.10;14.68;;;3.20;99.90;;;;;;2081354;28;20096;-68
2023/04/20 03:37:00;;;;;;;17.50;14.05;;;3.20;99.90;;;;;;2081300;28;20029;-68
2023/04/20 03:38:00;;;;;;;20.77;15.23;;;3.30;99.90;;;;;;2073192;28;20750;-69
2023/04/20 03:39:01;;;;;;;19.67;15.18;;;3.30;99.90;;;;;;2074064;28;20060;-69
2023/04/20 03:40:02;;;;;;;20.25;15.75;;;3.30;99.90;;;;;;2074999;28;20364;-69
2023/04/20 03:41:06;;;;;;;21.73;16.42;;;3.40;99.90;;;;;;2079799;28;20480;-69
2023/04/20 03:42:07;;;;;;;20.95;16.35;;;3.40;99.90;;;;;;2073057;28;20550;-68
2023/04/20 03:43:08;;;;;;;20.45;15.90;;;3.50;99.90;;;;;;2081321;28;20033;-68
2023/04/20 03:44:08;;;;;;;26.45;18.08;;;3.50;99.90;;;;;;2078120;28;20025;-68
2023/04/20 03:45:11;;;;;;;23.70;17.17;;;3.50;99.90;;;;;;2073126;28;20040;-67
2023/04/20 03:46:11;;;;;;;22.65;16.85;;;3.50;99.90;;;;;;2081166;28;20131;-67
2023/04/20 03:47:12;;;;;;;23.30;17.02;;;3.60;99.90;;;;;;2083279;28;20033;-68
2023/04/20 03:48:13;;;;;;;24.15;17.70;;;3.60;99.90;;;;;;2073270;28;20524;-67
2023/04/20 03:49:13;;;;;;;22.92;16.98;;;3.60;99.90;;;;;;2073105;28;20103;-68
2023/04/20 03:50:15;;;;;;;23.42;17.35;;;3.70;99.90;;;;;;2067881;28;20100;-68
2023/04/20 03:51:15;;;;;;;23.73;17.20;;;3.60;99.90;;;;;;2079424;28;20036;-68
2023/04/20 03:52:16;;;;;;;24.42;17.60;;;3.70;99.90;;;;;;2072841;28;20084;-68
2023/04/20 03:53:16;;;;;;;24.60;17.08;;;3.70;99.90;;;;;;2081045;28;20032;-68
2023/04/20 03:54:17;;;;;;;25.30;17.70;;;3.70;99.90;;;;;;2081222;28;20112;-68
2023/04/20 03:55:18;;;;;;;26.30;17.83;;;3.70;99.90;;;;;;2081142;28;20571;-68
2023/04/20 03:56:26;;;;;;;26.17;18.67;;;3.70;99.90;;;;;;2081068;28;20032;-68
2023/04/20 03:57:27;;;;;;;24.42;16.98;;;3.70;99.90;;;;;;2072993;28;20028;-69
2023/04/20 03:58:29;;;;;;;23.50;17.42;;;3.70;99.90;;;;;;2082683;28;20048;-68
2023/04/20 03:59:43;;;;;;;23.50;16.88;;;3.70;99.90;;;;;;2071843;28;20144;-68
2023/04/20 04:00:47;;;;;;;23.60;16.73;;;3.70;99.90;;;;;;2083671;28;20029;-68
2023/04/20 04:01:49;;;;;;;25.40;17.58;;;3.70;99.90;;;;;;2092164;28;20025;-68
2023/04/20 04:02:50;;;;;;;25.20;17.55;;;3.70;99.90;;;;;;2081104;28;20079;-68
2023/04/20 04:03:57;;;;;;;23.63;17.02;;;3.70;99.90;;;;;;2073500;28;20064;-68
2023/04/20 04:04:58;;;;;;;25.00;17.25;;;3.80;99.90;;;;;;2081094;28;20021;-68
2023/04/20 04:06:00;;;;;;;23.90;16.90;;;3.80;99.90;;;;;;2090140;28;20028;-67
2023/04/20 04:07:01;;;;;;;25.00;17.38;;;3.80;99.90;;;;;;2081017;28;20040;-68
2023/04/20 04:08:02;;;;;;;25.63;17.17;;;3.80;99.90;;;;;;2074095;28;20052;-68
2023/04/20 04:09:03;;;;;;;25.73;18.27;;;3.80;99.90;;;;;;2065232;28;20481;-69
2023/04/20 04:10:05;;;;;;;26.52;17.90;;;3.70;99.90;;;;;;2072848;28;20132;-69
2023/04/20 04:11:06;;;;;;;23.58;17.08;;;3.70;99.90;;;;;;2081108;28;20036;-69
2023/04/20 04:12:07;;;;;;;24.48;17.63;;;3.70;99.90;;;;;;2074726;28;20416;-69
2023/04/20 04:13:08;;;;;;;24.73;16.70;;;3.70;99.90;;;;;;2081331;28;20126;-68
2023/04/20 04:14:09;;;;;;;24.17;17.58;;;3.70;99.90;;;;;;2080708;28;20100;-68
2023/04/20 04:15:11;;;;;;;25.13;17.35;;;3.80;99.90;;;;;;2073915;28;20081;-69
2023/04/20 04:16:19;;;;;;;26.08;17.77;;;3.80;99.90;;;;;;2080456;28;20500;-68
2023/04/20 04:17:22;;;;;;;26.40;18.48;;;3.80;99.90;;;;;;2072900;28;20504;-68
2023/04/20 04:18:25;;;;;;;25.30;18.35;;;3.80;99.90;;;;;;2073103;28;20033;-68
2023/04/20 04:19:25;;;;;;;25.50;17.83;;;3.90;99.90;;;;;;2074645;28;20029;-69
2023/04/20 04:20:26;;;;;;;26.00;17.55;;;3.90;99.90;;;;;;2069849;28;20029;-70
2023/04/20 04:21:27;;;;;;;24.58;17.50;;;3.90;99.90;;;;;;2079448;28;20517;-70
2023/04/20 04:22:34;;;;;;;26.73;18.63;;;3.90;99.90;;;;;;2080833;28;20053;-69
2023/04/20 04:24:04;;;;;;;25.55;17.83;;;3.90;99.90;;;;;;2078895;28;20029;-76
2023/04/20 04:25:10;;;;;;;26.13;17.95;;;3.90;99.90;;;;;;2062657;28;20543;-74
2023/04/20 04:26:11;;;;;;;24.90;17.38;;;3.90;99.90;;;;;;2065416;28;20125;-72
2023/04/20 04:27:17;;;;;;;25.42;17.75;;;3.90;99.90;;;;;;2072810;28;20034;-72
2023/04/20 04:28:26;;;;;;;24.92;17.33;;;3.90;99.90;;;;;;2074087;28;20333;-75
2023/04/20 04:29:40;;;;;;;22.98;16.67;;;3.80;99.90;;;;;;2078186;28;20140;-74
2023/04/20 04:30:43;;;;;;;24.20;17.00;;;3.90;99.90;;;;;;2081066;28;20237;-75
2023/04/20 04:31:44;;;;;;;27.20;18.55;;;3.80;99.90;;;;;;2077664;28;20203;-74
2023/04/20 04:32:49;;;;;;;25.13;17.33;;;3.90;99.90;;;;;;2073156;28;20114;-74
2023/04/20 04:33:51;;;;;;;24.67;17.65;;;3.80;99.90;;;;;;2075758;28;20447;-75
2023/04/20 04:35:01;;;;;;;24.52;17.27;;;3.80;99.90;;;;;;2070684;28;20029;-74
2023/04/20 04:36:02;;;;;;;24.70;17.23;;;3.80;99.90;;;;;;2074568;28;20439;-74
2023/04/20 04:37:04;;;;;;;26.42;17.95;;;3.80;99.90;;;;;;2076027;28;20112;-74
2023/04/20 04:38:15;;;;;;;23.90;16.58;;;3.80;99.90;;;;;;2081377;28;20477;-74
2023/04/20 04:39:19;;;;;;;25.40;17.02;;;3.80;99.90;;;;;;2073458;28;20733;-75
2023/04/20 04:40:27;;;;;;;24.58;16.83;;;3.80;99.90;;;;;;2070435;28;20025;-74
2023/04/20 04:41:31;;;;;;;23.40;17.13;;;3.80;99.90;;;;;;2074149;28;20029;-75
2023/04/20 04:42:44;;;;;;;24.08;17.27;;;3.80;99.90;;;;;;2076377;28;20407;-78
2023/04/20 04:43:46;;;;;;;25.85;18.02;;;3.80;99.90;;;;;;2074881;28;20040;-77
2023/04/20 04:45:00;;;;;;;26.20;17.65;;;3.80;99.90;;;;;;2074452;28;20018;-74
2023/04/20 04:46:14;;;;;;;25.65;17.58;;;3.80;99.90;;;;;;2073665;28;20029;-74
2023/04/20 04:47:16;;;;;;;24.85;17.10;;;3.80;99.90;;;;;;2082579;28;20315;-73
2023/04/20 04:48:17;;;;;;;25.40;17.58;;;3.80;99.90;;;;;;2084880;28;20032;-73
2023/04/20 04:49:19;;;;;;;25.70;17.48;;;3.80;99.90;;;;;;2088097;28;20351;-74
2023/04/20 04:50:20;;;;;;;25.17;17.45;;;3.90;99.90;;;;;;2074920;28;20129;-73
2023/04/20 04:51:21;;;;;;;23.80;16.48;;;3.90;99.90;;;;;;2081078;28;20467;-73
2023/04/20 04:52:23;;;;;;;25.20;17.25;;;3.90;99.90;;;;;;2082916;28;20279;-74
2023/04/20 04:53:23;;;;;;;24.08;16.80;;;3.90;99.90;;;;;;2080893;28;20024;-74
2023/04/20 04:54:24;;;;;;;25.58;17.52;;;3.90;99.90;;;;;;2089814;28;20039;-75
2023/04/20 04:55:24;;;;;;;28.08;18.83;;;4.00;99.90;;;;;;2090142;28;20078;-73
2023/04/20 04:56:25;;;;;;;28.20;18.83;;;4.00;99.90;;;;;;2091929;28;20491;-74
2023/04/20 04:57:26;;;;;;;27.70;18.38;;;4.00;99.90;;;;;;2089665;28;20491;-75
2023/04/20 04:58:26;;;;;;;28.02;18.90;;;4.00;99.90;;;;;;2092455;28;20525;-75
2023/04/20 04:59:27;;;;;;;27.65;18.30;;;4.00;99.90;;;;;;2090331;28;20036;-75
2023/04/20 05:00:28;;;;;;;27.00;18.23;;;4.00;99.90;;;;;;2090074;28;20083;-75
2023/04/20 05:01:28;;;;;;;29.55;18.77;;;4.10;99.90;;;;;;2090163;28;20017;-75
2023/04/20 05:02:29;;;;;;;27.63;18.98;;;4.10;99.90;;;;;;2092980;28;20031;-75
2023/04/20 05:03:30;;;;;;;26.80;18.08;;;4.10;99.90;;;;;;2091341;28;20028;-75
2023/04/20 05:04:30;;;;;;;25.77;17.88;;;4.10;99.90;;;;;;2090679;28;20154;-76
2023/04/20 05:05:31;;;;;;;29.17;19.33;;;4.10;99.90;;;;;;2084617;28;20035;-76
2023/04/20 05:06:32;;;;;;;29.27;19.60;;;4.10;99.90;;;;;;2084396;28;20083;-76
2023/04/20 05:07:33;;;;;;;27.42;19.05;;;4.10;99.90;;;;;;2090471;28;20899;-75
2023/04/20 05:08:33;;;;;;;30.95;20.42;;;4.20;99.90;;;;;;2090824;28;20052;-75
2023/04/20 05:09:34;;;;;;;29.00;19.52;;;4.10;99.90;;;;;;2085781;28;20085;-77
2023/04/20 05:10:35;;;;;;;29.92;19.55;;;4.10;99.90;;;;;;2083453;28;20574;-77
2023/04/20 05:11:35;;;;;;;28.05;18.77;;;4.10;99.90;;;;;;2081782;28;20501;-77
2023/04/20 05:12:36;;;;;;;27.65;18.75;;;4.10;99.90;;;;;;2073315;28;20245;-77
2023/04/20 05:13:37;;;;;;;28.60;19.27;;;4.20;99.90;;;;;;2063761;28;20387;-74
2023/04/20 05:14:37;;;;;;;26.60;18.27;;;4.20;99.90;;;;;;2089589;28;20032;-76
2023/04/20 05:15:38;;;;;;;26.20;17.88;;;4.20;99.90;;;;;;2085760;28;20036;-72
2023/04/20 05:16:38;;;;;;;25.02;17.05;;;4.20;99.90;;;;;;2078291;28;20036;-74
2023/04/20 05:17:39;;;;;;;25.10;17.15;;;4.10;99.90;;;;;;2081531;28;20025;-75
2023/04/20 05:18:40;;;;;;;25.40;16.83;;;4.10;99.90;;;;;;2089296;28;20415;-75
2023/04/20 05:19:40;;;;;;;23.38;16.23;;;4.10;99.90;;;;;;2091754;28;20244;-75
2023/04/20 05:20:41;;;;;;;23.83;16.00;;;4.00;99.90;;;;;;2083820;28;20063;-73